sensor_id;sensor_type;location;lat;lon;timestamp;P1;durP1;ratioP1;P2;durP2;ratioP2
20480;SDS011;10399;50.754;3.366;2022-12-18T00:02:50;63.67;;;26.77;;
20480;SDS011;10399;50.754;3.366;2022-12-18T00:05:27;62.57;;;25.63;;
20480;SDS011;10399;50.754;3.366;2022-12-18T00:07:59;68.27;;;28.93;;
20480;SDS011;10399;50.754;3.366;2022-12-18T00:10:34;72.63;;;28.47;;
20480;SDS011;10399;50.754;3.366;2022-12-18T00:13:07;75.23;;;28.37;;
20480;SDS011;10399;50.754;3.366;2022-12-18T00:15:43;71.63;;;31.30;;
20480;SDS011;10399;50.754;3.366;2022-12-18T00:18:10;65.80;;;27.03;;
20480;SDS011;10399;50.754;3.366;2022-12-18T00:20:44;70.10;;;28.13;;
20480;SDS011;10399;50.754;3.366;2022-12-18T00:23:11;61.80;;;27.43;;
20480;SDS011;10399;50.754;3.366;2022-12-18T00:25:39;53.87;;;26.30;;
20480;SDS011;10399;50.754;3.366;2022-12-18T00:28:06;55.37;;;25.67;;
20480;SDS011;10399;50.754;3.366;2022-12-18T00:30:33;60.10;;;27.30;;
20480;SDS011;10399;50.754;3.366;2022-12-18T00:33:01;55.63;;;26.10;;
20480;SDS011;10399;50.754;3.366;2022-12-18T00:35:36;58.70;;;26.63;;
20480;SDS011;10399;50.754;3.366;2022-12-18T00:38:11;59.93;;;25.67;;
20480;SDS011;10399;50.754;3.366;2022-12-18T00:40:45;58.77;;;25.87;;
20480;SDS011;10399;50.754;3.366;2022-12-18T00:43:12;57.80;;;26.10;;
20480;SDS011;10399;50.754;3.366;2022-12-18T00:45:49;63.00;;;26.20;;
20480;SDS011;10399;50.754;3.366;2022-12-18T00:48:30;61.53;;;26.03;;
20480;SDS011;10399;50.754;3.366;2022-12-18T00:51:07;59.57;;;25.97;;
20480;SDS011;10399;50.754;3.366;2022-12-18T00:53:37;60.10;;;25.50;;
20480;SDS011;10399;50.754;3.366;2022-12-18T00:56:09;64.27;;;25.80;;
20480;SDS011;10399;50.754;3.366;2022-12-18T00:58:39;54.53;;;24.60;;
20480;SDS011;10399;50.754;3.366;2022-12-18T01:01:07;59.30;;;26.47;;
20480;SDS011;10399;50.754;3.366;2022-12-18T01:03:45;62.27;;;25.93;;
20480;SDS011;10399;50.754;3.366;2022-12-18T01:06:13;58.17;;;26.03;;
20480;SDS011;10399;50.754;3.366;2022-12-18T01:08:42;58.70;;;25.57;;
20480;SDS011;10399;50.754;3.366;2022-12-18T01:11:21;58.23;;;24.40;;
20480;SDS011;10399;50.754;3.366;2022-12-18T01:13:58;59.53;;;25.67;;
20480;SDS011;10399;50.754;3.366;2022-12-18T01:16:35;57.20;;;25.20;;
20480;SDS011;10399;50.754;3.366;2022-12-18T01:19:15;62.13;;;26.03;;
20480;SDS011;10399;50.754;3.366;2022-12-18T01:21:46;65.07;;;26.30;;
20480;SDS011;10399;50.754;3.366;2022-12-18T01:24:16;57.50;;;25.83;;
20480;SDS011;10399;50.754;3.366;2022-12-18T01:27:02;59.93;;;26.10;;
20480;SDS011;10399;50.754;3.366;2022-12-18T01:29:31;55.03;;;25.67;;
20480;SDS011;10399;50.754;3.366;2022-12-18T01:31:59;59.47;;;25.37;;
20480;SDS011;10399;50.754;3.366;2022-12-18T01:34:31;56.30;;;25.67;;
20480;SDS011;10399;50.754;3.366;2022-12-18T01:36:58;63.07;;;25.10;;
20480;SDS011;10399;50.754;3.366;2022-12-18T01:39:28;59.37;;;27.07;;
20480;SDS011;10399;50.754;3.366;2022-12-18T01:41:55;54.60;;;24.97;;
20480;SDS011;10399;50.754;3.366;2022-12-18T01:50:18;61.83;;;25.43;;
20480;SDS011;10399;50.754;3.366;2022-12-18T01:53:22;52.00;;;23.17;;
20480;SDS011;10399;50.754;3.366;2022-12-18T01:55:59;49.93;;;23.43;;
20480;SDS011;10399;50.754;3.366;2022-12-18T02:01:03;56.70;;;23.93;;
20480;SDS011;10399;50.754;3.366;2022-12-18T02:03:33;57.47;;;23.47;;
20480;SDS011;10399;50.754;3.366;2022-12-18T02:09:27;52.13;;;24.60;;
20480;SDS011;10399;50.754;3.366;2022-12-18T02:11:35;56.47;;;24.63;;
20480;SDS011;10399;50.754;3.366;2022-12-18T02:17:07;66.07;;;26.10;;
20480;SDS011;10399;50.754;3.366;2022-12-18T02:22:41;59.67;;;24.80;;
20480;SDS011;10399;50.754;3.366;2022-12-18T02:25:13;58.50;;;26.07;;
20480;SDS011;10399;50.754;3.366;2022-12-18T02:28:02;58.50;;;23.77;;
20480;SDS011;10399;50.754;3.366;2022-12-18T02:30:32;59.33;;;24.70;;
20480;SDS011;10399;50.754;3.366;2022-12-18T02:33:09;52.73;;;23.87;;
20480;SDS011;10399;50.754;3.366;2022-12-18T02:35:51;55.70;;;23.63;;
20480;SDS011;10399;50.754;3.366;2022-12-18T02:38:20;59.67;;;23.80;;
20480;SDS011;10399;50.754;3.366;2022-12-18T02:40:48;55.33;;;23.33;;
20480;SDS011;10399;50.754;3.366;2022-12-18T02:43:18;52.93;;;24.10;;
20480;SDS011;10399;50.754;3.366;2022-12-18T02:45:56;55.37;;;22.77;;
20480;SDS011;10399;50.754;3.366;2022-12-18T02:48:29;50.87;;;21.80;;
20480;SDS011;10399;50.754;3.366;2022-12-18T02:51:14;53.27;;;22.73;;
20480;SDS011;10399;50.754;3.366;2022-12-18T02:53:56;51.43;;;22.73;;
20480;SDS011;10399;50.754;3.366;2022-12-18T02:56:41;44.80;;;20.77;;
20480;SDS011;10399;50.754;3.366;2022-12-18T02:59:19;48.63;;;21.10;;
20480;SDS011;10399;50.754;3.366;2022-12-18T03:02:20;46.78;;;20.92;;
20480;SDS011;10399;50.754;3.366;2022-12-18T03:08:20;46.17;;;21.17;;
20480;SDS011;10399;50.754;3.366;2022-12-18T03:11:13;45.80;;;19.80;;
20480;SDS011;10399;50.754;3.366;2022-12-18T03:14:00;43.90;;;18.97;;
20480;SDS011;10399;50.754;3.366;2022-12-18T03:16:35;42.23;;;19.53;;
20480;SDS011;10399;50.754;3.366;2022-12-18T03:19:53;47.50;;;20.20;;
20480;SDS011;10399;50.754;3.366;2022-12-18T03:22:49;39.27;;;18.27;;
20480;SDS011;10399;50.754;3.366;2022-12-18T03:25:23;39.00;;;18.97;;
20480;SDS011;10399;50.754;3.366;2022-12-18T03:27:55;44.33;;;19.53;;
20480;SDS011;10399;50.754;3.366;2022-12-18T03:30:26;40.10;;;18.90;;
20480;SDS011;10399;50.754;3.366;2022-12-18T03:36:13;41.43;;;18.80;;
20480;SDS011;10399;50.754;3.366;2022-12-18T03:38:41;38.87;;;17.10;;
20480;SDS011;10399;50.754;3.366;2022-12-18T03:41:12;38.23;;;16.57;;
20480;SDS011;10399;50.754;3.366;2022-12-18T03:47:15;34.83;;;16.73;;
20480;SDS011;10399;50.754;3.366;2022-12-18T03:52:52;31.63;;;15.03;;
20480;SDS011;10399;50.754;3.366;2022-12-18T03:55:23;33.07;;;15.20;;
20480;SDS011;10399;50.754;3.366;2022-12-18T03:57:55;32.47;;;15.73;;
20480;SDS011;10399;50.754;3.366;2022-12-18T04:00:23;34.13;;;15.77;;
20480;SDS011;10399;50.754;3.366;2022-12-18T04:02:59;34.10;;;15.90;;
20480;SDS011;10399;50.754;3.366;2022-12-18T04:05:29;31.27;;;14.97;;
20480;SDS011;10399;50.754;3.366;2022-12-18T04:07:58;32.17;;;15.03;;
20480;SDS011;10399;50.754;3.366;2022-12-18T04:10:27;32.20;;;16.07;;
20480;SDS011;10399;50.754;3.366;2022-12-18T04:12:58;34.07;;;15.17;;
20480;SDS011;10399;50.754;3.366;2022-12-18T04:15:26;34.77;;;15.30;;
20480;SDS011;10399;50.754;3.366;2022-12-18T04:17:55;30.57;;;14.63;;
20480;SDS011;10399;50.754;3.366;2022-12-18T04:20:22;37.77;;;16.53;;
20480;SDS011;10399;50.754;3.366;2022-12-18T04:22:50;30.47;;;14.33;;
20480;SDS011;10399;50.754;3.366;2022-12-18T04:25:17;26.03;;;13.60;;
20480;SDS011;10399;50.754;3.366;2022-12-18T04:27:44;29.02;;;13.75;;
20480;SDS011;10399;50.754;3.366;2022-12-18T04:30:11;31.25;;;13.55;;
20480;SDS011;10399;50.754;3.366;2022-12-18T04:32:42;29.60;;;13.70;;
20480;SDS011;10399;50.754;3.366;2022-12-18T04:35:17;35.30;;;15.30;;
20480;SDS011;10399;50.754;3.366;2022-12-18T04:37:52;31.47;;;13.17;;
20480;SDS011;10399;50.754;3.366;2022-12-18T04:40:22;29.93;;;14.17;;
20480;SDS011;10399;50.754;3.366;2022-12-18T04:42:49;30.83;;;14.40;;
20480;SDS011;10399;50.754;3.366;2022-12-18T04:45:22;28.37;;;13.30;;
20480;SDS011;10399;50.754;3.366;2022-12-18T04:47:49;29.23;;;12.70;;
20480;SDS011;10399;50.754;3.366;2022-12-18T04:50:16;27.90;;;13.38;;
20480;SDS011;10399;50.754;3.366;2022-12-18T04:52:43;27.17;;;13.53;;
20480;SDS011;10399;50.754;3.366;2022-12-18T04:55:11;26.07;;;12.57;;
20480;SDS011;10399;50.754;3.366;2022-12-18T04:57:41;28.53;;;13.60;;
20480;SDS011;10399;50.754;3.366;2022-12-18T05:00:08;29.53;;;13.47;;
20480;SDS011;10399;50.754;3.366;2022-12-18T05:02:36;26.63;;;13.23;;
20480;SDS011;10399;50.754;3.366;2022-12-18T05:05:04;29.27;;;13.80;;
20480;SDS011;10399;50.754;3.366;2022-12-18T05:07:37;25.80;;;12.83;;
20480;SDS011;10399;50.754;3.366;2022-12-18T05:10:10;28.20;;;13.73;;
20480;SDS011;10399;50.754;3.366;2022-12-18T05:12:37;27.77;;;13.03;;
20480;SDS011;10399;50.754;3.366;2022-12-18T05:15:29;25.27;;;12.83;;
20480;SDS011;10399;50.754;3.366;2022-12-18T05:18:11;24.93;;;12.23;;
20480;SDS011;10399;50.754;3.366;2022-12-18T05:20:38;24.77;;;11.30;;
20480;SDS011;10399;50.754;3.366;2022-12-18T05:23:05;28.50;;;11.83;;
20480;SDS011;10399;50.754;3.366;2022-12-18T05:25:32;22.67;;;11.40;;
20480;SDS011;10399;50.754;3.366;2022-12-18T05:28:00;26.40;;;11.53;;
20480;SDS011;10399;50.754;3.366;2022-12-18T05:30:47;25.73;;;12.17;;
20480;SDS011;10399;50.754;3.366;2022-12-18T05:33:23;25.87;;;12.17;;
20480;SDS011;10399;50.754;3.366;2022-12-18T05:35:56;24.00;;;11.93;;
20480;SDS011;10399;50.754;3.366;2022-12-18T05:38:36;27.33;;;11.63;;
20480;SDS011;10399;50.754;3.366;2022-12-18T05:41:10;27.07;;;11.87;;
20480;SDS011;10399;50.754;3.366;2022-12-18T05:43:38;24.70;;;11.57;;
20480;SDS011;10399;50.754;3.366;2022-12-18T05:46:08;20.50;;;10.63;;
20480;SDS011;10399;50.754;3.366;2022-12-18T05:48:50;20.20;;;9.93;;
20480;SDS011;10399;50.754;3.366;2022-12-18T05:51:28;24.10;;;11.20;;
20480;SDS011;10399;50.754;3.366;2022-12-18T05:56:43;21.70;;;10.30;;
20480;SDS011;10399;50.754;3.366;2022-12-18T05:59:24;27.50;;;12.50;;
20480;SDS011;10399;50.754;3.366;2022-12-18T06:01:59;25.63;;;11.70;;
20480;SDS011;10399;50.754;3.366;2022-12-18T06:04:29;22.63;;;12.30;;
20480;SDS011;10399;50.754;3.366;2022-12-18T06:06:59;22.73;;;10.50;;
20480;SDS011;10399;50.754;3.366;2022-12-18T06:09:51;25.27;;;10.90;;
20480;SDS011;10399;50.754;3.366;2022-12-18T06:12:35;21.13;;;10.37;;
20480;SDS011;10399;50.754;3.366;2022-12-18T06:15:06;21.83;;;10.63;;
20480;SDS011;10399;50.754;3.366;2022-12-18T06:17:37;21.87;;;10.63;;
20480;SDS011;10399;50.754;3.366;2022-12-18T06:20:12;19.67;;;10.27;;
20480;SDS011;10399;50.754;3.366;2022-12-18T06:23:09;19.97;;;10.20;;
20480;SDS011;10399;50.754;3.366;2022-12-18T06:29:10;21.63;;;9.63;;
20480;SDS011;10399;50.754;3.366;2022-12-18T06:31:51;19.37;;;9.40;;
20480;SDS011;10399;50.754;3.366;2022-12-18T06:34:22;17.53;;;8.17;;
20480;SDS011;10399;50.754;3.366;2022-12-18T06:36:52;26.10;;;10.93;;
20480;SDS011;10399;50.754;3.366;2022-12-18T06:39:30;28.37;;;12.73;;
20480;SDS011;10399;50.754;3.366;2022-12-18T06:42:57;22.00;;;8.97;;
20480;SDS011;10399;50.754;3.366;2022-12-18T06:45:01;19.67;;;8.57;;
20480;SDS011;10399;50.754;3.366;2022-12-18T06:47:29;14.43;;;7.90;;
20480;SDS011;10399;50.754;3.366;2022-12-18T06:50:29;23.47;;;9.30;;
20480;SDS011;10399;50.754;3.366;2022-12-18T06:53:02;20.40;;;8.97;;
20480;SDS011;10399;50.754;3.366;2022-12-18T06:55:38;17.53;;;8.67;;
20480;SDS011;10399;50.754;3.366;2022-12-18T06:58:06;18.60;;;8.80;;
20480;SDS011;10399;50.754;3.366;2022-12-18T07:00:55;19.45;;;8.63;;
20480;SDS011;10399;50.754;3.366;2022-12-18T07:03:32;18.93;;;9.10;;
20480;SDS011;10399;50.754;3.366;2022-12-18T07:06:02;17.23;;;8.43;;
20480;SDS011;10399;50.754;3.366;2022-12-18T07:08:30;22.57;;;9.87;;
20480;SDS011;10399;50.754;3.366;2022-12-18T07:10:58;16.90;;;8.57;;
20480;SDS011;10399;50.754;3.366;2022-12-18T07:13:37;17.50;;;8.73;;
20480;SDS011;10399;50.754;3.366;2022-12-18T07:16:06;17.77;;;8.87;;
20480;SDS011;10399;50.754;3.366;2022-12-18T07:18:47;17.40;;;8.97;;
20480;SDS011;10399;50.754;3.366;2022-12-18T07:21:18;22.05;;;9.50;;
20480;SDS011;10399;50.754;3.366;2022-12-18T07:23:46;25.40;;;9.80;;
20480;SDS011;10399;50.754;3.366;2022-12-18T07:26:17;20.92;;;9.38;;
20480;SDS011;10399;50.754;3.366;2022-12-18T07:28:47;20.63;;;9.77;;
20480;SDS011;10399;50.754;3.366;2022-12-18T07:31:26;18.67;;;9.33;;
20480;SDS011;10399;50.754;3.366;2022-12-18T07:33:56;19.43;;;9.57;;
20480;SDS011;10399;50.754;3.366;2022-12-18T07:36:39;19.30;;;9.87;;
20480;SDS011;10399;50.754;3.366;2022-12-18T07:39:06;22.27;;;10.37;;
20480;SDS011;10399;50.754;3.366;2022-12-18T07:41:37;24.57;;;11.57;;
20480;SDS011;10399;50.754;3.366;2022-12-18T07:44:12;22.83;;;11.37;;
20480;SDS011;10399;50.754;3.366;2022-12-18T07:46:46;24.50;;;11.33;;
20480;SDS011;10399;50.754;3.366;2022-12-18T07:49:24;23.00;;;11.30;;
20480;SDS011;10399;50.754;3.366;2022-12-18T07:51:53;24.10;;;12.30;;
20480;SDS011;10399;50.754;3.366;2022-12-18T07:54:22;27.37;;;13.47;;
20480;SDS011;10399;50.754;3.366;2022-12-18T07:56:52;23.47;;;11.17;;
20480;SDS011;10399;50.754;3.366;2022-12-18T07:59:20;24.23;;;12.53;;
20480;SDS011;10399;50.754;3.366;2022-12-18T08:01:47;25.90;;;12.23;;
20480;SDS011;10399;50.754;3.366;2022-12-18T08:04:14;27.47;;;12.83;;
20480;SDS011;10399;50.754;3.366;2022-12-18T08:06:42;30.77;;;12.10;;
20480;SDS011;10399;50.754;3.366;2022-12-18T08:09:13;26.03;;;11.30;;
20480;SDS011;10399;50.754;3.366;2022-12-18T08:11:40;25.87;;;11.47;;
20480;SDS011;10399;50.754;3.366;2022-12-18T08:14:09;23.90;;;10.37;;
20480;SDS011;10399;50.754;3.366;2022-12-18T08:16:37;20.90;;;10.23;;
20480;SDS011;10399;50.754;3.366;2022-12-18T08:19:06;22.40;;;10.87;;
20480;SDS011;10399;50.754;3.366;2022-12-18T08:21:33;21.70;;;10.23;;
20480;SDS011;10399;50.754;3.366;2022-12-18T08:24:01;21.53;;;10.13;;
20480;SDS011;10399;50.754;3.366;2022-12-18T08:26:29;25.73;;;11.70;;
20480;SDS011;10399;50.754;3.366;2022-12-18T08:28:58;23.83;;;10.73;;
20480;SDS011;10399;50.754;3.366;2022-12-18T08:31:26;22.03;;;10.57;;
20480;SDS011;10399;50.754;3.366;2022-12-18T08:33:55;24.20;;;11.17;;
20480;SDS011;10399;50.754;3.366;2022-12-18T08:36:23;22.30;;;10.77;;
20480;SDS011;10399;50.754;3.366;2022-12-18T08:38:52;23.83;;;11.40;;
20480;SDS011;10399;50.754;3.366;2022-12-18T08:41:20;26.00;;;11.07;;
20480;SDS011;10399;50.754;3.366;2022-12-18T08:43:47;23.23;;;11.10;;
20480;SDS011;10399;50.754;3.366;2022-12-18T08:46:55;26.75;;;14.27;;
20480;SDS011;10399;50.754;3.366;2022-12-18T08:49:25;25.70;;;11.90;;
20480;SDS011;10399;50.754;3.366;2022-12-18T08:51:54;23.03;;;11.73;;
20480;SDS011;10399;50.754;3.366;2022-12-18T08:54:26;19.33;;;10.33;;
20480;SDS011;10399;50.754;3.366;2022-12-18T08:56:53;27.30;;;11.13;;
20480;SDS011;10399;50.754;3.366;2022-12-18T08:59:23;24.03;;;10.57;;
20480;SDS011;10399;50.754;3.366;2022-12-18T09:01:53;23.93;;;12.10;;
20480;SDS011;10399;50.754;3.366;2022-12-18T09:04:23;21.50;;;11.90;;
20480;SDS011;10399;50.754;3.366;2022-12-18T09:06:53;29.47;;;12.20;;
20480;SDS011;10399;50.754;3.366;2022-12-18T09:09:20;28.37;;;12.80;;
20480;SDS011;10399;50.754;3.366;2022-12-18T09:11:52;23.67;;;12.10;;
20480;SDS011;10399;50.754;3.366;2022-12-18T09:14:55;26.07;;;11.70;;
20480;SDS011;10399;50.754;3.366;2022-12-18T09:17:48;30.03;;;12.63;;
20480;SDS011;10399;50.754;3.366;2022-12-18T09:20:16;19.93;;;11.40;;
20480;SDS011;10399;50.754;3.366;2022-12-18T09:22:44;23.87;;;11.43;;
20480;SDS011;10399;50.754;3.366;2022-12-18T09:25:29;25.70;;;11.87;;
20480;SDS011;10399;50.754;3.366;2022-12-18T09:28:26;23.80;;;11.97;;
20480;SDS011;10399;50.754;3.366;2022-12-18T09:31:19;29.43;;;14.03;;
20480;SDS011;10399;50.754;3.366;2022-12-18T09:34:06;26.13;;;13.47;;
20480;SDS011;10399;50.754;3.366;2022-12-18T09:36:43;26.27;;;13.43;;
20480;SDS011;10399;50.754;3.366;2022-12-18T09:39:31;27.50;;;13.03;;
20480;SDS011;10399;50.754;3.366;2022-12-18T09:42:59;27.10;;;12.43;;
20480;SDS011;10399;50.754;3.366;2022-12-18T09:46:07;28.33;;;13.30;;
20480;SDS011;10399;50.754;3.366;2022-12-18T09:48:47;27.70;;;13.33;;
20480;SDS011;10399;50.754;3.366;2022-12-18T09:53:57;29.57;;;14.53;;
20480;SDS011;10399;50.754;3.366;2022-12-18T09:56:34;35.13;;;15.37;;
20480;SDS011;10399;50.754;3.366;2022-12-18T09:59:09;35.03;;;16.57;;
20480;SDS011;10399;50.754;3.366;2022-12-18T10:01:50;33.37;;;16.33;;
20480;SDS011;10399;50.754;3.366;2022-12-18T10:04:21;32.37;;;16.43;;
20480;SDS011;10399;50.754;3.366;2022-12-18T10:09:38;37.37;;;15.60;;
20480;SDS011;10399;50.754;3.366;2022-12-18T10:12:38;31.90;;;15.88;;
20480;SDS011;10399;50.754;3.366;2022-12-18T10:15:33;30.07;;;15.80;;
20480;SDS011;10399;50.754;3.366;2022-12-18T10:21:32;34.87;;;16.27;;
20480;SDS011;10399;50.754;3.366;2022-12-18T10:27:25;37.10;;;15.23;;
20480;SDS011;10399;50.754;3.366;2022-12-18T10:30:18;36.72;;;17.58;;
20480;SDS011;10399;50.754;3.366;2022-12-18T10:33:10;41.63;;;19.40;;
20480;SDS011;10399;50.754;3.366;2022-12-18T10:35:54;43.43;;;18.73;;
20480;SDS011;10399;50.754;3.366;2022-12-18T10:38:25;43.57;;;18.97;;
20480;SDS011;10399;50.754;3.366;2022-12-18T10:46:55;42.97;;;19.83;;
20480;SDS011;10399;50.754;3.366;2022-12-18T10:49:42;45.97;;;20.90;;
20480;SDS011;10399;50.754;3.366;2022-12-18T10:52:18;42.60;;;19.43;;
20480;SDS011;10399;50.754;3.366;2022-12-18T10:54:54;45.07;;;19.70;;
20480;SDS011;10399;50.754;3.366;2022-12-18T11:03:28;49.23;;;21.13;;
20480;SDS011;10399;50.754;3.366;2022-12-18T11:06:28;40.67;;;17.93;;
20480;SDS011;10399;50.754;3.366;2022-12-18T11:09:35;38.90;;;19.80;;
20480;SDS011;10399;50.754;3.366;2022-12-18T11:12:03;35.40;;;16.50;;
20480;SDS011;10399;50.754;3.366;2022-12-18T11:14:43;44.70;;;20.90;;
20480;SDS011;10399;50.754;3.366;2022-12-18T11:17:42;44.73;;;20.90;;
20480;SDS011;10399;50.754;3.366;2022-12-18T11:22:56;43.87;;;19.70;;
20480;SDS011;10399;50.754;3.366;2022-12-18T11:25:29;51.27;;;22.40;;
20480;SDS011;10399;50.754;3.366;2022-12-18T11:28:05;43.93;;;21.93;;
20480;SDS011;10399;50.754;3.366;2022-12-18T11:36:56;51.60;;;22.52;;
20480;SDS011;10399;50.754;3.366;2022-12-18T11:39:31;51.25;;;22.67;;
20480;SDS011;10399;50.754;3.366;2022-12-18T11:42:17;44.57;;;21.17;;
20480;SDS011;10399;50.754;3.366;2022-12-18T11:44:53;41.77;;;20.57;;
20480;SDS011;10399;50.754;3.366;2022-12-18T11:50:58;48.63;;;22.67;;
20480;SDS011;10399;50.754;3.366;2022-12-18T11:53:28;45.73;;;21.63;;
20480;SDS011;10399;50.754;3.366;2022-12-18T12:12:22;46.83;;;21.20;;
20480;SDS011;10399;50.754;3.366;2022-12-18T12:15:29;45.40;;;21.57;;
20480;SDS011;10399;50.754;3.366;2022-12-18T12:45:13;49.60;;;21.57;;
20480;SDS011;10399;50.754;3.366;2022-12-18T12:48:18;48.33;;;20.23;;
20480;SDS011;10399;50.754;3.366;2022-12-18T12:51:35;46.43;;;19.97;;
20480;SDS011;10399;50.754;3.366;2022-12-18T12:54:29;52.72;;;21.38;;
20480;SDS011;10399;50.754;3.366;2022-12-18T12:57:40;46.67;;;21.50;;
20480;SDS011;10399;50.754;3.366;2022-12-18T13:04:12;47.20;;;19.80;;
20480;SDS011;10399;50.754;3.366;2022-12-18T13:10:12;54.63;;;23.53;;
20480;SDS011;10399;50.754;3.366;2022-12-18T13:16:44;48.27;;;21.27;;
20480;SDS011;10399;50.754;3.366;2022-12-18T13:19:41;47.43;;;22.67;;
20480;SDS011;10399;50.754;3.366;2022-12-18T13:25:37;46.97;;;20.47;;
20480;SDS011;10399;50.754;3.366;2022-12-18T13:31:00;52.37;;;22.07;;
20480;SDS011;10399;50.754;3.366;2022-12-18T13:36:31;54.75;;;22.80;;
20480;SDS011;10399;50.754;3.366;2022-12-18T13:42:30;52.20;;;23.43;;
20480;SDS011;10399;50.754;3.366;2022-12-18T13:45:00;49.20;;;22.13;;
20480;SDS011;10399;50.754;3.366;2022-12-18T13:47:33;50.87;;;22.20;;
20480;SDS011;10399;50.754;3.366;2022-12-18T13:50:24;47.47;;;20.33;;
20480;SDS011;10399;50.754;3.366;2022-12-18T13:53:01;55.13;;;22.20;;
20480;SDS011;10399;50.754;3.366;2022-12-18T13:55:31;53.73;;;22.47;;
20480;SDS011;10399;50.754;3.366;2022-12-18T13:58:03;50.60;;;22.00;;
20480;SDS011;10399;50.754;3.366;2022-12-18T14:00:32;56.20;;;22.63;;
20480;SDS011;10399;50.754;3.366;2022-12-18T14:03:00;50.37;;;21.63;;
20480;SDS011;10399;50.754;3.366;2022-12-18T14:08:01;53.47;;;22.40;;
20480;SDS011;10399;50.754;3.366;2022-12-18T14:10:34;55.00;;;22.90;;
20480;SDS011;10399;50.754;3.366;2022-12-18T14:13:41;51.67;;;22.83;;
20480;SDS011;10399;50.754;3.366;2022-12-18T14:16:14;53.03;;;20.77;;
20480;SDS011;10399;50.754;3.366;2022-12-18T14:18:45;45.17;;;20.87;;
20480;SDS011;10399;50.754;3.366;2022-12-18T14:21:20;50.33;;;21.20;;
20480;SDS011;10399;50.754;3.366;2022-12-18T14:24:02;51.60;;;22.77;;
20480;SDS011;10399;50.754;3.366;2022-12-18T14:27:24;48.00;;;20.48;;
20480;SDS011;10399;50.754;3.366;2022-12-18T14:29:52;52.15;;;21.75;;
20480;SDS011;10399;50.754;3.366;2022-12-18T14:32:19;44.92;;;18.50;;
20480;SDS011;10399;50.754;3.366;2022-12-18T14:34:51;52.70;;;23.33;;
20480;SDS011;10399;50.754;3.366;2022-12-18T14:37:21;47.67;;;21.65;;
20480;SDS011;10399;50.754;3.366;2022-12-18T14:40:02;55.73;;;22.60;;
20480;SDS011;10399;50.754;3.366;2022-12-18T14:42:36;65.00;;;24.40;;
20480;SDS011;10399;50.754;3.366;2022-12-18T14:48:33;52.97;;;22.52;;
20480;SDS011;10399;50.754;3.366;2022-12-18T14:51:02;56.45;;;23.58;;
20480;SDS011;10399;50.754;3.366;2022-12-18T14:53:34;53.90;;;22.90;;
20480;SDS011;10399;50.754;3.366;2022-12-18T14:56:32;68.15;;;26.42;;
20480;SDS011;10399;50.754;3.366;2022-12-18T14:59:02;60.63;;;25.10;;
20480;SDS011;10399;50.754;3.366;2022-12-18T15:04:31;58.47;;;23.60;;
20480;SDS011;10399;50.754;3.366;2022-12-18T15:18:33;51.90;;;21.00;;
20480;SDS011;10399;50.754;3.366;2022-12-18T15:21:08;49.45;;;22.25;;
20480;SDS011;10399;50.754;3.366;2022-12-18T15:26:15;63.92;;;24.17;;
20480;SDS011;10399;50.754;3.366;2022-12-18T15:28:51;55.90;;;23.17;;
20480;SDS011;10399;50.754;3.366;2022-12-18T15:31:33;56.65;;;24.35;;
20480;SDS011;10399;50.754;3.366;2022-12-18T15:36:35;54.72;;;23.45;;
20480;SDS011;10399;50.754;3.366;2022-12-18T15:39:03;51.28;;;21.98;;
20480;SDS011;10399;50.754;3.366;2022-12-18T15:41:33;55.47;;;23.50;;
20480;SDS011;10399;50.754;3.366;2022-12-18T15:44:25;56.97;;;22.83;;
20480;SDS011;10399;50.754;3.366;2022-12-18T15:46:53;55.60;;;23.52;;
20480;SDS011;10399;50.754;3.366;2022-12-18T15:49:23;51.30;;;20.70;;
20480;SDS011;10399;50.754;3.366;2022-12-18T15:51:58;55.08;;;22.52;;
20480;SDS011;10399;50.754;3.366;2022-12-18T15:54:29;51.77;;;20.97;;
20480;SDS011;10399;50.754;3.366;2022-12-18T15:57:42;51.75;;;21.60;;
20480;SDS011;10399;50.754;3.366;2022-12-18T16:00:11;50.33;;;21.17;;
20480;SDS011;10399;50.754;3.366;2022-12-18T16:02:39;53.15;;;21.33;;
20480;SDS011;10399;50.754;3.366;2022-12-18T16:05:15;53.35;;;22.45;;
20480;SDS011;10399;50.754;3.366;2022-12-18T16:07:47;53.42;;;22.83;;
20480;SDS011;10399;50.754;3.366;2022-12-18T16:10:14;42.45;;;18.95;;
20480;SDS011;10399;50.754;3.366;2022-12-18T16:12:44;48.60;;;21.15;;
20480;SDS011;10399;50.754;3.366;2022-12-18T16:15:15;51.17;;;22.02;;
20480;SDS011;10399;50.754;3.366;2022-12-18T16:17:50;45.77;;;20.57;;
20480;SDS011;10399;50.754;3.366;2022-12-18T16:20:31;53.13;;;20.43;;
20480;SDS011;10399;50.754;3.366;2022-12-18T16:23:03;60.55;;;23.67;;
20480;SDS011;10399;50.754;3.366;2022-12-18T16:25:31;56.93;;;23.13;;
20480;SDS011;10399;50.754;3.366;2022-12-18T16:27:58;54.78;;;21.85;;
20480;SDS011;10399;50.754;3.366;2022-12-18T16:30:26;62.58;;;22.95;;
20480;SDS011;10399;50.754;3.366;2022-12-18T16:33:03;56.15;;;22.30;;
20480;SDS011;10399;50.754;3.366;2022-12-18T16:35:36;49.33;;;21.98;;
20480;SDS011;10399;50.754;3.366;2022-12-18T16:38:04;55.03;;;23.00;;
20480;SDS011;10399;50.754;3.366;2022-12-18T16:40:32;49.38;;;21.92;;
20480;SDS011;10399;50.754;3.366;2022-12-18T16:43:19;51.00;;;22.05;;
20480;SDS011;10399;50.754;3.366;2022-12-18T16:45:48;60.65;;;25.55;;
20480;SDS011;10399;50.754;3.366;2022-12-18T16:48:17;52.28;;;22.83;;
20480;SDS011;10399;50.754;3.366;2022-12-18T16:50:46;61.58;;;24.10;;
20480;SDS011;10399;50.754;3.366;2022-12-18T16:53:13;63.05;;;25.13;;
20480;SDS011;10399;50.754;3.366;2022-12-18T16:55:40;57.70;;;25.00;;
20480;SDS011;10399;50.754;3.366;2022-12-18T16:58:08;58.67;;;24.00;;
20480;SDS011;10399;50.754;3.366;2022-12-18T17:00:37;50.10;;;22.08;;
20480;SDS011;10399;50.754;3.366;2022-12-18T17:03:06;57.03;;;23.73;;
20480;SDS011;10399;50.754;3.366;2022-12-18T17:05:34;60.17;;;25.60;;
20480;SDS011;10399;50.754;3.366;2022-12-18T17:08:01;53.35;;;22.30;;
20480;SDS011;10399;50.754;3.366;2022-12-18T17:10:29;52.00;;;22.25;;
20480;SDS011;10399;50.754;3.366;2022-12-18T17:12:57;52.85;;;22.70;;
20480;SDS011;10399;50.754;3.366;2022-12-18T17:15:27;56.10;;;21.70;;
20480;SDS011;10399;50.754;3.366;2022-12-18T17:17:55;52.10;;;21.10;;
20480;SDS011;10399;50.754;3.366;2022-12-18T17:20:29;51.08;;;20.38;;
20480;SDS011;10399;50.754;3.366;2022-12-18T17:22:57;51.47;;;20.27;;
20480;SDS011;10399;50.754;3.366;2022-12-18T17:25:30;50.03;;;21.92;;
20480;SDS011;10399;50.754;3.366;2022-12-18T17:28:00;44.03;;;19.27;;
20480;SDS011;10399;50.754;3.366;2022-12-18T17:30:28;47.88;;;20.52;;
20480;SDS011;10399;50.754;3.366;2022-12-18T17:32:55;54.00;;;20.80;;
20480;SDS011;10399;50.754;3.366;2022-12-18T17:35:31;46.17;;;18.93;;
20480;SDS011;10399;50.754;3.366;2022-12-18T17:38:02;49.27;;;20.60;;
20480;SDS011;10399;50.754;3.366;2022-12-18T17:40:37;44.42;;;18.95;;
20480;SDS011;10399;50.754;3.366;2022-12-18T17:43:15;49.17;;;20.60;;
20480;SDS011;10399;50.754;3.366;2022-12-18T17:45:42;52.90;;;21.60;;
20480;SDS011;10399;50.754;3.366;2022-12-18T17:48:15;51.30;;;21.42;;
20480;SDS011;10399;50.754;3.366;2022-12-18T17:50:46;41.03;;;16.00;;
20480;SDS011;10399;50.754;3.366;2022-12-18T17:53:16;50.03;;;20.60;;
20480;SDS011;10399;50.754;3.366;2022-12-18T17:55:56;52.58;;;20.60;;
20480;SDS011;10399;50.754;3.366;2022-12-18T17:58:26;47.63;;;21.33;;